Bookmark and Share
Track history (hours):
 

Chem Orion

Last reported at 2014-Apr-16 15:33 UTC. Time now 2014-Apr-16 16:01 UTC.
Position N 50°13' W 001°45'.

Length 125 m; draft 8.1 m.

Type: Ship (hazmat cat D). MMSI: 538002197.

NotesDate/timePositionNaut miles runAvg speedWind from/ knotsBaromVisibWave heightAir tempDewpointWater temp
2014-Apr-16 15:33N 50°13' W 001°45'1515.0
2014-Apr-16 14:31N 50°16' W 001°22'1414.8
2014-Apr-16 13:33N 50°20' W 001°00'1312.9
2014-Apr-16 12:33N 50°23' W 000°40'1110.7
2014-Apr-16 11:33N 50°26' W 000°24'1110.1
2014-Apr-16 10:27N 50°29' W 000°07'10 9.2
2014-Apr-16 09:24N 50°31' E 000°08'8 9.0
2014-Apr-16 08:33N 50°33' E 000°19'1010.0
2014-Apr-16 07:33N 50°36' E 000°34'1211.8
2014-Apr-16 06:33N 50°44' E 000°49'2512.6
2014-Apr-16 04:33N 50°60' E 001°19'1111.1
2014-Apr-16 03:33N 51°07' E 001°33'9 9.3
2014-Apr-16 02:33N 51°13' E 001°44'9 8.8
2014-Apr-16 01:33N 51°21' E 001°51'9 9.2
2014-Apr-16 00:34N 51°29' E 001°58'1010.4
2014-Apr-15 23:33N 51°36' E 002°09'239 7.5
2014-Apr-14 15:34N 54°12' E 007°09'6 5.9
2014-Apr-14 14:33N 54°12' E 007°20'6 6.4
2014-Apr-14 13:33N 54°12' E 007°31'14 7.0
2014-Apr-14 11:33N 54°06' E 007°52'7 6.6
2014-Apr-14 10:33N 54°05' E 008°03'5 5.4
2014-Apr-14 09:33N 54°00' E 008°08'7 6.8
2014-Apr-14 08:34N 53°60' E 008°19'7 6.6
2014-Apr-14 07:33N 53°58' E 008°30'8 7.5
2014-Apr-14 06:33N 53°55' E 008°41'10 9.8
2014-Apr-14 05:33N 53°51' E 008°57'41 5.9
2014-Apr-13 22:32N 53°30' E 009°58'0 0.0
2014-Apr-13 21:32N 53°30' E 009°58'0 0.0
2014-Apr-13 20:26N 53°30' E 009°58'0 0.0
2014-Apr-13 19:32N 53°30' E 009°58'0 0.0
2014-Apr-13 18:29N 53°30' E 009°58'0 0.0
2014-Apr-13 17:32N 53°30' E 009°58'0 0.0
2014-Apr-13 16:32N 53°30' E 009°58'0 0.0
2014-Apr-13 15:32N 53°30' E 009°58'0 0.0
2014-Apr-13 14:32N 53°30' E 009°58'0 0.0
2014-Apr-13 13:32N 53°30' E 009°58'0 0.0
2014-Apr-13 12:29N 53°30' E 009°58'0 0.0
2014-Apr-13 11:32N 53°30' E 009°58'0 0.0
2014-Apr-13 10:26N 53°30' E 009°58'0 0.0
2014-Apr-13 09:32N 53°30' E 009°58'0 0.0
2014-Apr-13 08:32N 53°30' E 009°58'0 0.0
2014-Apr-13 07:32N 53°30' E 009°58'0 0.0
2014-Apr-13 06:32N 53°30' E 009°58'0 0.0
2014-Apr-13 05:32N 53°30' E 009°58'0 0.0
2014-Apr-13 04:31N 53°30' E 009°58'0 0.0
2014-Apr-13 03:19N 53°30' E 009°58'0 0.0
2014-Apr-13 02:31N 53°30' E 009°58'0 0.0
2014-Apr-13 01:31N 53°30' E 009°58'0 0.0
2014-Apr-13 00:31N 53°30' E 009°58'0 0.0
2014-Apr-12 23:25N 53°30' E 009°58'0 0.0
2014-Apr-12 22:31N 53°30' E 009°58'0 0.0
2014-Apr-12 21:31N 53°30' E 009°58'0 0.0
2014-Apr-12 20:31N 53°30' E 009°58'0 0.0
2014-Apr-12 19:31N 53°30' E 009°58'0 0.0
2014-Apr-12 18:31N 53°30' E 009°58'0 0.0
2014-Apr-12 17:31N 53°30' E 009°58'0 0.3
2014-Apr-12 16:33N 53°31' E 009°57'5 4.6
2014-Apr-12 15:33N 53°33' E 009°50'9 8.7
2014-Apr-12 14:33N 53°35' E 009°36'1110.6
2014-Apr-12 13:33N 53°44' E 009°26'1111.3
2014-Apr-12 12:33N 53°53' E 009°14'1211.7
2014-Apr-12 11:34N 53°51' E 008°54'1110.8
2014-Apr-12 10:33N 53°56' E 008°39'1211.6
2014-Apr-12 09:33N 53°59' E 008°20'1111.0
2014-Apr-12 08:33N 54°01' E 008°01'8 8.2
2014-Apr-12 07:33N 54°04' E 007°48'0 0.1
2014-Apr-12 06:33N 54°04' E 007°48'0 0.0
2014-Apr-12 05:32N 54°04' E 007°48'0 0.0
2014-Apr-12 04:33N 54°04' E 007°48'2 2.2
2014-Apr-12 03:33N 54°03' E 007°52'1110.6
2014-Apr-12 02:33N 54°09' E 007°36'1211.9
2014-Apr-12 01:34N 54°09' E 007°16'1211.7
2014-Apr-12 00:33N 54°09' E 006°56'3812.1
2014-Apr-11 21:26N 54°06' E 005°52'1212.4
2014-Apr-11 20:28N 54°04' E 005°32'1312.7
2014-Apr-11 19:28N 54°02' E 005°10'10 8.7
2014-Apr-11 18:23N 54°06' E 004°55'1012.0
2014-Apr-11 17:33N 54°16' E 004°57'81 7.4
2014-Apr-11 06:30N 53°12' E 003°32'1311.3
2014-Apr-11 05:21N 52°60' E 003°24'1111.8
2014-Apr-11 04:26N 52°50' E 003°16'1112.4
2014-Apr-11 03:31N 52°40' E 003°07'30 9.0
2014-Apr-11 00:13N 52°12' E 003°23'812.5
2014-Apr-10 23:33N 52°08' E 003°35'1212.0
2014-Apr-10 22:33N 52°03' E 003°53'1110.8
2014-Apr-10 21:33N 51°58' E 004°09'8 8.0
2014-Apr-10 20:32N 51°53' E 004°19'0 0.0
2014-Apr-10 19:28N 51°53' E 004°19'0 0.0
2014-Apr-10 16:19N 51°53' E 004°19'0 0.0
2014-Apr-10 15:22N 51°53' E 004°19'0 0.0
2014-Apr-10 14:19N 51°53' E 004°19'0 0.0
2014-Apr-10 13:28N 51°53' E 004°19'0 0.0
2014-Apr-10 12:31N 51°53' E 004°19'0 0.0
2014-Apr-10 11:19N 51°53' E 004°19'0 0.0
2014-Apr-10 10:28N 51°53' E 004°19'0 0.0
2014-Apr-10 09:31N 51°53' E 004°19'0 0.0
2014-Apr-10 08:22N 51°53' E 004°19'0 0.0
2014-Apr-10 07:10N 51°53' E 004°19'0 0.0
2014-Apr-10 06:28N 51°53' E 004°19'0 0.0
2014-Apr-10 05:28N 51°53' E 004°19'0 0.0
2014-Apr-10 04:28N 51°53' E 004°19'0 0.0
2014-Apr-10 03:31N 51°53' E 004°19'0 0.0
2014-Apr-10 02:28N 51°53' E 004°19'0 0.0
2014-Apr-10 01:28N 51°53' E 004°19'0 0.0
2014-Apr-10 00:28N 51°53' E 004°19'0 0.0
2014-Apr-09 23:28N 51°53' E 004°19'0 0.0
2014-Apr-09 22:28N 51°53' E 004°19'0 0.0
2014-Apr-09 21:16N 51°53' E 004°19'0 0.0
2014-Apr-09 20:21N 51°53' E 004°19'0 0.0
2014-Apr-09 19:33N 51°53' E 004°19'0 0.0
2014-Apr-09 18:10N 51°53' E 004°19'0 0.0
2014-Apr-09 17:31N 51°53' E 004°19'4 3.7
2014-Apr-09 16:33N 51°55' E 004°14'8 8.2
2014-Apr-09 15:33N 51°59' E 004°03'1010.2
2014-Apr-09 14:31N 51°59' E 003°46'10 9.9
2014-Apr-09 13:30N 51°56' E 003°30'2 1.5
2014-Apr-09 12:17N 51°54' E 003°30'0 0.0
2014-Apr-09 10:26N 51°54' E 003°30'0 0.0
2014-Apr-09 08:12N 51°54' E 003°30'0 0.0
2014-Apr-09 07:33N 51°54' E 003°30'0 0.0
2014-Apr-09 06:33N 51°54' E 003°30'5 5.4
2014-Apr-09 05:33N 51°51' E 003°23'10 9.2
2014-Apr-09 04:31N 51°42' E 003°16'1010.5
2014-Apr-09 03:32N 51°33' E 003°25'9 9.5
2014-Apr-09 02:33N 51°26' E 003°34'9 9.0
2014-Apr-09 01:34N 51°22' E 003°47'1010.2
2014-Apr-09 00:33N 51°25' E 004°02'9 9.0
2014-Apr-08 23:34N 51°21' E 004°15'8 8.4
2014-Apr-08 22:33N 51°14' E 004°23'7 7.3
2014-Apr-08 21:34N 51°08' E 004°19'2 1.6
2014-Apr-08 20:33N 51°06' E 004°19'1 1.4
2014-Apr-08 19:29N 51°05' E 004°21'0 0.0
2014-Apr-08 18:32N 51°05' E 004°21'0 0.0
2014-Apr-08 17:26N 51°05' E 004°21'0 0.0
2014-Apr-08 16:20N 51°05' E 004°21'0 0.0
2014-Apr-08 15:29N 51°05' E 004°21'0 0.0
2014-Apr-08 14:26N 51°05' E 004°21'0 0.0
2014-Apr-08 13:32N 51°05' E 004°21'0 0.0
2014-Apr-08 12:14N 51°05' E 004°21'0 0.0
2014-Apr-08 11:26N 51°05' E 004°21'0 0.0
2014-Apr-08 10:14N 51°05' E 004°21'0 0.0
2014-Apr-08 09:23N 51°05' E 004°21'0 0.0
2014-Apr-08 08:29N 51°05' E 004°21'0 0.0
2014-Apr-08 07:29N 51°05' E 004°21'0 0.0
2014-Apr-08 06:28N 51°05' E 004°21'0 0.0
2014-Apr-08 05:31N 51°05' E 004°21'0 0.0
2014-Apr-08 04:31N 51°05' E 004°21'0 0.0
2014-Apr-08 02:25N 51°05' E 004°21'0 0.0
2014-Apr-08 01:31N 51°05' E 004°21'0 0.0
2014-Apr-08 00:22N 51°05' E 004°21'0 0.0
2014-Apr-07 23:32N 51°05' E 004°21'1 1.4
2014-Apr-07 22:29N 51°06' E 004°19'1 1.3
2014-Apr-07 21:33N 51°07' E 004°18'3 3.3
2014-Apr-07 20:33N 51°10' E 004°20'5 5.5
2014-Apr-07 19:34N 51°16' E 004°18'15 7.6
2014-Apr-07 17:33N 51°23' E 003°57'1010.0
2014-Apr-07 16:33N 51°26' E 003°41'1111.2
2014-Apr-07 15:33N 51°24' E 003°24'1211.9
2014-Apr-07 14:33N 51°24' E 003°04'1010.5
2014-Apr-07 13:33N 51°21' E 002°48'7 6.8
2014-Apr-07 12:33N 51°20' E 002°38'0 0.2
2014-Apr-07 11:33N 51°20' E 002°37'1 0.6
2014-Apr-07 10:33N 51°21' E 002°37'6 6.4
2014-Apr-07 09:33N 51°21' E 002°27'1110.8
2014-Apr-07 08:33N 51°16' E 002°12'1312.5
2014-Apr-07 07:33N 51°10' E 001°54'1312.9
2014-Apr-07 06:33N 51°02' E 001°38'2812.8
2014-Apr-07 04:21N 50°38' E 001°15'1312.8
2014-Apr-07 03:19N 50°29' E 000°59'1012.6
2014-Apr-07 02:33N 50°27' E 000°44'1312.9
2014-Apr-07 01:33N 50°23' E 000°25'6212.3
2014-Apr-06 20:33N 50°07' W 001°08'  

Dump ship's entire track history

sailing weather and tide predictions

Chem Orion — V7GZ9 — position and weather